Pacific Beryl — 9V9809 — position and weather

sailwx.info

Track history (hours):
 
Tides and Currents Weather Stations Pressure Air Temp Water Temp Dewpoint Dewpoint Depression Visibility Wind Speed Wind Dir Waves Ship Positions

Pacific Beryl

Last reported at 2018-Apr-25 10:30 UTC. Time now 2018-Apr-25 10:37 UTC.
Position N 30°11' W 093°19'.

Length 182 m; draft 7 m.

Type: Tanker. MMSI: 566366000.

Date/timePositionNaut miles runAvg speedWind from/ knotsBaromVisibWave heightAir tempDewpointWater temp
2018-Apr-25 10:30N 30°11' W 093°19'0 0.0
2018-Apr-25 10:00N 30°11' W 093°19'0 0.0
2018-Apr-25 09:30N 30°11' W 093°19'0 0.0
2018-Apr-25 09:00N 30°11' W 093°19'0 0.0
2018-Apr-25 08:30N 30°11' W 093°19'0 0.0
2018-Apr-25 07:57N 30°11' W 093°19'0 0.0
2018-Apr-25 07:30N 30°11' W 093°19'0 0.0
2018-Apr-25 07:00N 30°11' W 093°19'0 0.0
2018-Apr-25 06:30N 30°11' W 093°19'0 0.0
2018-Apr-25 06:00N 30°11' W 093°19'0 0.0
2018-Apr-25 05:30N 30°11' W 093°19'0 0.0
2018-Apr-25 05:00N 30°11' W 093°19'0 0.0
2018-Apr-25 04:30N 30°11' W 093°19'0 0.0
2018-Apr-25 04:00N 30°11' W 093°19'0 0.0
2018-Apr-25 03:30N 30°11' W 093°19'0 0.0
2018-Apr-25 03:00N 30°11' W 093°19'0 0.0
2018-Apr-25 02:30N 30°11' W 093°19'0 0.0
2018-Apr-25 02:00N 30°11' W 093°19'0 0.0
2018-Apr-25 01:30N 30°11' W 093°19'0 0.0
2018-Apr-25 01:00N 30°11' W 093°19'0 0.0
2018-Apr-25 00:30N 30°11' W 093°19'0 0.0
2018-Apr-25 00:00N 30°11' W 093°19'0 0.0
2018-Apr-24 23:30N 30°11' W 093°19'0 0.0
2018-Apr-24 23:00N 30°11' W 093°19'0 0.0
2018-Apr-24 22:30N 30°11' W 093°19'0 0.0
2018-Apr-24 22:00N 30°11' W 093°19'0 0.0
2018-Apr-24 21:30N 30°11' W 093°19'0 0.0
2018-Apr-24 21:00N 30°11' W 093°19'0 0.0
2018-Apr-24 20:30N 30°11' W 093°19'0 0.0
2018-Apr-24 20:00N 30°11' W 093°19'0 0.0
2018-Apr-24 19:30N 30°11' W 093°19'0 0.0
2018-Apr-24 19:00N 30°11' W 093°19'0 0.0
2018-Apr-24 18:30N 30°11' W 093°19'0 0.0
2018-Apr-24 18:00N 30°11' W 093°19'0 0.0
2018-Apr-24 17:30N 30°11' W 093°19'0 0.0
2018-Apr-24 17:00N 30°11' W 093°19'0 0.0
2018-Apr-24 16:30N 30°11' W 093°19'0 0.0
2018-Apr-24 16:00N 30°11' W 093°19'0 0.0
2018-Apr-24 15:30N 30°11' W 093°19'0 0.0
2018-Apr-24 15:00N 30°11' W 093°19'0 0.0
2018-Apr-24 14:30N 30°11' W 093°19'0 0.0
2018-Apr-24 14:00N 30°11' W 093°19'0 0.0
2018-Apr-24 13:30N 30°11' W 093°19'0 0.0
2018-Apr-24 13:00N 30°11' W 093°19'0 0.0
2018-Apr-24 12:30N 30°11' W 093°19'0 0.0
2018-Apr-24 12:00N 30°11' W 093°19'0 0.0
2018-Apr-24 11:30N 30°11' W 093°19'0 0.0
2018-Apr-24 11:01N 30°11' W 093°19'0 0.1
2018-Apr-24 10:30N 30°11' W 093°19'1 2.8
2018-Apr-24 10:01N 30°09' W 093°20'3 5.9
2018-Apr-24 09:31N 30°06' W 093°20'4 7.9
2018-Apr-24 09:01N 30°03' W 093°20'4 7.1
2018-Apr-24 08:30N 29°59' W 093°20'5 9.8
2018-Apr-24 08:00N 29°54' W 093°21'5 9.4
2018-Apr-24 07:31N 29°49' W 093°21'4 8.1
2018-Apr-24 07:00N 29°45' W 093°21'611.2
2018-Apr-24 06:30N 29°40' W 093°20'3 5.1
2018-Apr-24 05:49N 29°37' W 093°17'0 1.3
2018-Apr-24 05:30N 29°37' W 093°17'0 0.8
2018-Apr-24 04:56N 29°37' W 093°17'0 0.0
2018-Apr-24 04:29N 29°37' W 093°17'0 0.0
2018-Apr-24 04:00N 29°37' W 093°17'0 0.0
2018-Apr-24 03:26N 29°37' W 093°17'0 0.1
2018-Apr-24 02:53N 29°37' W 093°17'0 0.0
2018-Apr-24 02:14N 29°37' W 093°17'0 0.0
2018-Apr-24 01:56N 29°37' W 093°17'0 0.0
2018-Apr-23 18:56N 29°37' W 093°17'0 0.0
2018-Apr-23 17:59N 29°37' W 093°17'0 0.0
2018-Apr-23 15:14N 29°37' W 093°17'0 0.0
2018-Apr-23 13:53N 29°37' W 093°17'0 0.0
2018-Apr-23 13:26N 29°37' W 093°17'0 0.1
2018-Apr-23 12:59N 29°37' W 093°17'0 0.1
2018-Apr-23 12:29N 29°37' W 093°17'0 0.0
2018-Apr-23 11:59N 29°37' W 093°17'0 0.0
2018-Apr-23 11:29N 29°37' W 093°17'0 0.0
2018-Apr-23 10:56N 29°37' W 093°17'0 0.0
2018-Apr-23 10:29N 29°37' W 093°17'0 0.0
2018-Apr-23 09:59N 29°37' W 093°17'0 0.0
2018-Apr-23 09:29N 29°37' W 093°17'0 0.0
2018-Apr-23 08:59N 29°37' W 093°17'0 0.0
2018-Apr-23 08:29N 29°37' W 093°17'0 0.2
2018-Apr-23 08:00N 29°37' W 093°17'2 4.0
2018-Apr-23 07:30N 29°36' W 093°16'510.0
2018-Apr-23 07:00N 29°31' W 093°13'  
2018-Apr-17 00:42N 19°35' W 095°59'512.2
2018-Apr-17 00:17N 19°30' W 095°58'412.1
2018-Apr-16 23:59N 19°26' W 095°58'612.1
2018-Apr-16 23:30N 19°20' W 095°57'611.6
2018-Apr-16 23:01N 19°15' W 095°58'611.7
2018-Apr-16 22:28N 19°11' W 096°03'4 7.8
2018-Apr-16 22:00N 19°12' W 096°07'0 0.4
2018-Apr-16 21:16N 19°12' W 096°07'0 0.0
2018-Apr-16 20:58N 19°12' W 096°07'0 0.0
2018-Apr-16 20:28N 19°12' W 096°07'0 0.0
2018-Apr-16 19:55N 19°12' W 096°07'0 0.0
2018-Apr-16 19:28N 19°12' W 096°07'0 0.0
2018-Apr-16 18:40N 19°12' W 096°07'0 0.0
2018-Apr-16 18:25N 19°12' W 096°07'0 0.0
2018-Apr-16 17:55N 19°12' W 096°07'0 0.0
2018-Apr-16 17:19N 19°12' W 096°07'0 0.0
2018-Apr-16 16:52N 19°12' W 096°07'0 0.0
2018-Apr-16 16:28N 19°12' W 096°07'0 0.0
2018-Apr-16 15:55N 19°12' W 096°07'0 0.0
2018-Apr-16 15:25N 19°12' W 096°07'0 0.0
2018-Apr-16 14:58N 19°12' W 096°07'0 0.0
2018-Apr-16 14:28N 19°12' W 096°07'0 0.0
2018-Apr-16 13:58N 19°12' W 096°07'0 0.0
2018-Apr-16 13:28N 19°12' W 096°07'0 0.0
2018-Apr-16 12:58N 19°12' W 096°07'0 0.0
2018-Apr-16 12:29N 19°12' W 096°07'1 1.4
2018-Apr-16 12:00N 19°12' W 096°07'3 6.7
2018-Apr-16 11:30N 19°11' W 096°03'3 6.7
2018-Apr-16 11:01N 19°09' W 096°01'1 2.2
2018-Apr-16 10:30N 19°08' W 096°00'0 0.0
2018-Apr-16 10:00N 19°08' W 096°00'0 0.0
2018-Apr-16 09:30N 19°08' W 096°00'0 0.0
2018-Apr-16 09:00N 19°08' W 096°00'0 0.0
2018-Apr-16 08:30N 19°08' W 096°00'0 0.0
2018-Apr-16 07:54N 19°08' W 096°00'0 0.0
2018-Apr-16 07:30N 19°08' W 096°00'0 0.0
2018-Apr-16 07:00N 19°08' W 096°00'0 0.0
2018-Apr-16 06:30N 19°08' W 095°60'0 0.1
2018-Apr-16 06:00N 19°08' W 096°00'0 0.0
2018-Apr-16 05:30N 19°08' W 096°00'0 0.0
2018-Apr-16 04:54N 19°08' W 096°00'0 0.0
2018-Apr-16 04:24N 19°08' W 096°00'0 0.0
2018-Apr-16 04:00N 19°08' W 096°00'0 0.0
2018-Apr-16 03:30N 19°08' W 096°00'0 0.0
2018-Apr-16 03:00N 19°08' W 096°00'0 0.0
2018-Apr-16 02:30N 19°08' W 096°00'0 0.0
2018-Apr-16 02:00N 19°08' W 096°00'0 0.0
2018-Apr-16 01:30N 19°08' W 096°00'0 0.0
2018-Apr-16 01:00N 19°08' W 096°00'0 0.0
2018-Apr-16 00:24N 19°08' W 096°00'0 0.0
2018-Apr-16 00:00N 19°08' W 096°00'0 0.0
2018-Apr-15 23:30N 19°08' W 096°00'0 0.0
2018-Apr-15 23:00N 19°08' W 096°00'0 0.0
2018-Apr-15 22:30N 19°08' W 096°00'0 0.0
2018-Apr-15 22:00N 19°08' W 095°60'0 0.0
2018-Apr-15 21:30N 19°08' W 096°00'0 0.0
2018-Apr-15 21:00N 19°08' W 096°00'0 0.3
2018-Apr-15 20:30N 19°08' W 095°60'3 6.3
2018-Apr-15 20:00N 19°11' W 096°00'612.8
2018-Apr-15 19:30N 19°18' W 096°00'611.8
2018-Apr-15 18:59N 19°24' W 096°01'4 7.3
2018-Apr-15 18:28N 19°28' W 096°01'1 2.2
2018-Apr-15 18:00N 19°27' W 096°01'1 2.0
2018-Apr-15 17:29N 19°26' W 096°00'2 2.9
2018-Apr-15 16:57N 19°24' W 095°59'2 3.8
2018-Apr-15 16:27N 19°23' W 095°59'2 3.3
2018-Apr-15 15:59N 19°21' W 095°58'1 2.0
2018-Apr-15 15:30N 19°22' W 095°59'3 6.4
2018-Apr-15 15:00N 19°24' W 096°01'3 6.3
2018-Apr-15 14:30N 19°27' W 096°03'1 1.4
2018-Apr-15 13:59N 19°27' W 096°03'1 2.9
2018-Apr-15 13:30N 19°26' W 096°03'1 2.7
2018-Apr-15 13:00N 19°25' W 096°02'1 2.8
2018-Apr-15 12:30N 19°24' W 096°01'1 2.5
2018-Apr-15 12:00N 19°23' W 095°60'1 2.2
2018-Apr-15 11:30N 19°23' W 095°59'1 1.5
2018-Apr-15 11:00N 19°23' W 095°58'1 2.5
2018-Apr-15 10:30N 19°22' W 095°57'  
Track history (hours):
 
Tides and Currents Weather Stations Pressure Air Temp Water Temp Dewpoint Dewpoint Depression Visibility Wind Speed Wind Dir Waves Ship Positions

Pacific Beryl

Last reported at 2018-Apr-25 10:30 UTC. Time now 2018-Apr-25 10:37 UTC.
Position N 30°11' W 093°19'.

Length 182 m; draft 7 m.

Type: Tanker. MMSI: 566366000.

Date/timePositionNaut miles runAvg speedWind from/ knotsBaromVisibWave heightAir tempDewpointWater temp
2018-Apr-25 10:30N 30°11' W 093°19'0 0.0
2018-Apr-25 10:00N 30°11' W 093°19'0 0.0
2018-Apr-25 09:30N 30°11' W 093°19'0 0.0
2018-Apr-25 09:00N 30°11' W 093°19'0 0.0
2018-Apr-25 08:30N 30°11' W 093°19'0 0.0
2018-Apr-25 07:57N 30°11' W 093°19'0 0.0
2018-Apr-25 07:30N 30°11' W 093°19'0 0.0
2018-Apr-25 07:00N 30°11' W 093°19'0 0.0
2018-Apr-25 06:30N 30°11' W 093°19'0 0.0
2018-Apr-25 06:00N 30°11' W 093°19'0 0.0
2018-Apr-25 05:30N 30°11' W 093°19'0 0.0
2018-Apr-25 05:00N 30°11' W 093°19'0 0.0
2018-Apr-25 04:30N 30°11' W 093°19'0 0.0
2018-Apr-25 04:00N 30°11' W 093°19'0 0.0
2018-Apr-25 03:30N 30°11' W 093°19'0 0.0
2018-Apr-25 03:00N 30°11' W 093°19'0 0.0
2018-Apr-25 02:30N 30°11' W 093°19'0 0.0
2018-Apr-25 02:00N 30°11' W 093°19'0 0.0
2018-Apr-25 01:30N 30°11' W 093°19'0 0.0
2018-Apr-25 01:00N 30°11' W 093°19'0 0.0
2018-Apr-25 00:30N 30°11' W 093°19'0 0.0
2018-Apr-25 00:00N 30°11' W 093°19'0 0.0
2018-Apr-24 23:30N 30°11' W 093°19'0 0.0
2018-Apr-24 23:00N 30°11' W 093°19'0 0.0
2018-Apr-24 22:30N 30°11' W 093°19'0 0.0
2018-Apr-24 22:00N 30°11' W 093°19'0 0.0
2018-Apr-24 21:30N 30°11' W 093°19'0 0.0
2018-Apr-24 21:00N 30°11' W 093°19'0 0.0
2018-Apr-24 20:30N 30°11' W 093°19'0 0.0
2018-Apr-24 20:00N 30°11' W 093°19'0 0.0
2018-Apr-24 19:30N 30°11' W 093°19'0 0.0
2018-Apr-24 19:00N 30°11' W 093°19'0 0.0
2018-Apr-24 18:30N 30°11' W 093°19'0 0.0
2018-Apr-24 18:00N 30°11' W 093°19'0 0.0
2018-Apr-24 17:30N 30°11' W 093°19'0 0.0
2018-Apr-24 17:00N 30°11' W 093°19'0 0.0
2018-Apr-24 16:30N 30°11' W 093°19'0 0.0
2018-Apr-24 16:00N 30°11' W 093°19'0 0.0
2018-Apr-24 15:30N 30°11' W 093°19'0 0.0
2018-Apr-24 15:00N 30°11' W 093°19'0 0.0
2018-Apr-24 14:30N 30°11' W 093°19'0 0.0
2018-Apr-24 14:00N 30°11' W 093°19'0 0.0
2018-Apr-24 13:30N 30°11' W 093°19'0 0.0
2018-Apr-24 13:00N 30°11' W 093°19'0 0.0
2018-Apr-24 12:30N 30°11' W 093°19'0 0.0
2018-Apr-24 12:00N 30°11' W 093°19'0 0.0
2018-Apr-24 11:30N 30°11' W 093°19'0 0.0
2018-Apr-24 11:01N 30°11' W 093°19'0 0.1
2018-Apr-24 10:30N 30°11' W 093°19'1 2.8
2018-Apr-24 10:01N 30°09' W 093°20'3 5.9
2018-Apr-24 09:31N 30°06' W 093°20'4 7.9
2018-Apr-24 09:01N 30°03' W 093°20'4 7.1
2018-Apr-24 08:30N 29°59' W 093°20'5 9.8
2018-Apr-24 08:00N 29°54' W 093°21'5 9.4
2018-Apr-24 07:31N 29°49' W 093°21'4 8.1
2018-Apr-24 07:00N 29°45' W 093°21'611.2
2018-Apr-24 06:30N 29°40' W 093°20'3 5.1
2018-Apr-24 05:49N 29°37' W 093°17'0 1.3
2018-Apr-24 05:30N 29°37' W 093°17'0 0.8
2018-Apr-24 04:56N 29°37' W 093°17'0 0.0
2018-Apr-24 04:29N 29°37' W 093°17'0 0.0
2018-Apr-24 04:00N 29°37' W 093°17'0 0.0
2018-Apr-24 03:26N 29°37' W 093°17'0 0.1
2018-Apr-24 02:53N 29°37' W 093°17'0 0.0
2018-Apr-24 02:14N 29°37' W 093°17'0 0.0
2018-Apr-24 01:56N 29°37' W 093°17'0 0.0
2018-Apr-23 18:56N 29°37' W 093°17'0 0.0
2018-Apr-23 17:59N 29°37' W 093°17'0 0.0
2018-Apr-23 15:14N 29°37' W 093°17'0 0.0
2018-Apr-23 13:53N 29°37' W 093°17'0 0.0
2018-Apr-23 13:26N 29°37' W 093°17'0 0.1
2018-Apr-23 12:59N 29°37' W 093°17'0 0.1
2018-Apr-23 12:29N 29°37' W 093°17'0 0.0
2018-Apr-23 11:59N 29°37' W 093°17'0 0.0
2018-Apr-23 11:29N 29°37' W 093°17'0 0.0
2018-Apr-23 10:56N 29°37' W 093°17'0 0.0
2018-Apr-23 10:29N 29°37' W 093°17'0 0.0
2018-Apr-23 09:59N 29°37' W 093°17'0 0.0
2018-Apr-23 09:29N 29°37' W 093°17'0 0.0
2018-Apr-23 08:59N 29°37' W 093°17'0 0.0
2018-Apr-23 08:29N 29°37' W 093°17'0 0.2
2018-Apr-23 08:00N 29°37' W 093°17'2 4.0
2018-Apr-23 07:30N 29°36' W 093°16'510.0
2018-Apr-23 07:00N 29°31' W 093°13'  
2018-Apr-17 00:42N 19°35' W 095°59'512.2
2018-Apr-17 00:17N 19°30' W 095°58'412.1
2018-Apr-16 23:59N 19°26' W 095°58'612.1
2018-Apr-16 23:30N 19°20' W 095°57'611.6
2018-Apr-16 23:01N 19°15' W 095°58'611.7
2018-Apr-16 22:28N 19°11' W 096°03'4 7.8
2018-Apr-16 22:00N 19°12' W 096°07'0 0.4
2018-Apr-16 21:16N 19°12' W 096°07'0 0.0
2018-Apr-16 20:58N 19°12' W 096°07'0 0.0
2018-Apr-16 20:28N 19°12' W 096°07'0 0.0
2018-Apr-16 19:55N 19°12' W 096°07'0 0.0
2018-Apr-16 19:28N 19°12' W 096°07'0 0.0
2018-Apr-16 18:40N 19°12' W 096°07'0 0.0
2018-Apr-16 18:25N 19°12' W 096°07'0 0.0
2018-Apr-16 17:55N 19°12' W 096°07'0 0.0
2018-Apr-16 17:19N 19°12' W 096°07'0 0.0
2018-Apr-16 16:52N 19°12' W 096°07'0 0.0
2018-Apr-16 16:28N 19°12' W 096°07'0 0.0
2018-Apr-16 15:55N 19°12' W 096°07'0 0.0
2018-Apr-16 15:25N 19°12' W 096°07'0 0.0
2018-Apr-16 14:58N 19°12' W 096°07'0 0.0
2018-Apr-16 14:28N 19°12' W 096°07'0 0.0
2018-Apr-16 13:58N 19°12' W 096°07'0 0.0
2018-Apr-16 13:28N 19°12' W 096°07'0 0.0
2018-Apr-16 12:58N 19°12' W 096°07'0 0.0
2018-Apr-16 12:29N 19°12' W 096°07'1 1.4
2018-Apr-16 12:00N 19°12' W 096°07'3 6.7
2018-Apr-16 11:30N 19°11' W 096°03'3 6.7
2018-Apr-16 11:01N 19°09' W 096°01'1 2.2
2018-Apr-16 10:30N 19°08' W 096°00'0 0.0
2018-Apr-16 10:00N 19°08' W 096°00'0 0.0
2018-Apr-16 09:30N 19°08' W 096°00'0 0.0
2018-Apr-16 09:00N 19°08' W 096°00'0 0.0
2018-Apr-16 08:30N 19°08' W 096°00'0 0.0
2018-Apr-16 07:54N 19°08' W 096°00'0 0.0
2018-Apr-16 07:30N 19°08' W 096°00'0 0.0
2018-Apr-16 07:00N 19°08' W 096°00'0 0.0
2018-Apr-16 06:30N 19°08' W 095°60'0 0.1
2018-Apr-16 06:00N 19°08' W 096°00'0 0.0
2018-Apr-16 05:30N 19°08' W 096°00'0 0.0
2018-Apr-16 04:54N 19°08' W 096°00'0 0.0
2018-Apr-16 04:24N 19°08' W 096°00'0 0.0
2018-Apr-16 04:00N 19°08' W 096°00'0 0.0
2018-Apr-16 03:30N 19°08' W 096°00'0 0.0
2018-Apr-16 03:00N 19°08' W 096°00'0 0.0
2018-Apr-16 02:30N 19°08' W 096°00'0 0.0
2018-Apr-16 02:00N 19°08' W 096°00'0 0.0
2018-Apr-16 01:30N 19°08' W 096°00'0 0.0
2018-Apr-16 01:00N 19°08' W 096°00'0 0.0
2018-Apr-16 00:24N 19°08' W 096°00'0 0.0
2018-Apr-16 00:00N 19°08' W 096°00'0 0.0
2018-Apr-15 23:30N 19°08' W 096°00'0 0.0
2018-Apr-15 23:00N 19°08' W 096°00'0 0.0
2018-Apr-15 22:30N 19°08' W 096°00'0 0.0
2018-Apr-15 22:00N 19°08' W 095°60'0 0.0
2018-Apr-15 21:30N 19°08' W 096°00'0 0.0
2018-Apr-15 21:00N 19°08' W 096°00'0 0.3
2018-Apr-15 20:30N 19°08' W 095°60'3 6.3
2018-Apr-15 20:00N 19°11' W 096°00'612.8
2018-Apr-15 19:30N 19°18' W 096°00'611.8
2018-Apr-15 18:59N 19°24' W 096°01'4 7.3
2018-Apr-15 18:28N 19°28' W 096°01'1 2.2
2018-Apr-15 18:00N 19°27' W 096°01'1 2.0
2018-Apr-15 17:29N 19°26' W 096°00'2 2.9
2018-Apr-15 16:57N 19°24' W 095°59'2 3.8
2018-Apr-15 16:27N 19°23' W 095°59'2 3.3
2018-Apr-15 15:59N 19°21' W 095°58'1 2.0
2018-Apr-15 15:30N 19°22' W 095°59'3 6.4
2018-Apr-15 15:00N 19°24' W 096°01'3 6.3
2018-Apr-15 14:30N 19°27' W 096°03'1 1.4
2018-Apr-15 13:59N 19°27' W 096°03'1 2.9
2018-Apr-15 13:30N 19°26' W 096°03'1 2.7
2018-Apr-15 13:00N 19°25' W 096°02'1 2.8
2018-Apr-15 12:30N 19°24' W 096°01'1 2.5
2018-Apr-15 12:00N 19°23' W 095°60'1 2.2
2018-Apr-15 11:30N 19°23' W 095°59'1 1.5
2018-Apr-15 11:00N 19°23' W 095°58'1 2.5
2018-Apr-15 10:30N 19°22' W 095°57'  

Dump ship's entire track history